createdAt,value
2022-12-25T00:00:35.469Z,2.48
2022-12-25T00:03:02.100Z,2.42
2022-12-25T00:05:28.729Z,2.39
2022-12-25T00:07:55.235Z,2.40
2022-12-25T00:10:21.873Z,2.41
2022-12-25T00:12:48.465Z,2.38
2022-12-25T00:15:14.986Z,2.35
2022-12-25T00:17:41.633Z,2.29
2022-12-25T00:20:08.879Z,2.26
2022-12-25T00:22:35.505Z,2.20
2022-12-25T00:25:02.023Z,2.28
2022-12-25T00:27:32.942Z,2.26
2022-12-25T00:30:00.032Z,2.29
2022-12-25T00:32:26.629Z,2.34
2022-12-25T00:34:53.150Z,2.32
2022-12-25T00:37:19.702Z,2.33
2022-12-25T00:39:48.446Z,2.28
2022-12-25T00:42:24.967Z,2.30
2022-12-25T00:44:51.534Z,2.25
2022-12-25T00:47:18.289Z,2.23
2022-12-25T00:49:45.276Z,2.23
2022-12-25T00:52:11.827Z,2.19
2022-12-25T00:54:38.332Z,2.20
2022-12-25T00:57:04.874Z,2.19
2022-12-25T00:59:32.654Z,2.24
2022-12-25T01:02:22.397Z,2.24
2022-12-25T01:04:50.734Z,2.23
2022-12-25T01:07:18.082Z,2.24
2022-12-25T01:10:04.321Z,2.18
2022-12-25T01:12:33.150Z,2.18
2022-12-25T01:15:00.602Z,2.17
2022-12-25T01:17:27.165Z,2.24
2022-12-25T01:19:53.656Z,2.20
2022-12-25T01:22:20.165Z,2.16
2022-12-25T01:24:47.021Z,2.11
2022-12-25T01:27:13.573Z,2.14
2022-12-25T01:29:40.079Z,2.12
2022-12-25T01:32:08.077Z,2.08
2022-12-25T01:34:34.702Z,2.06
2022-12-25T01:37:01.233Z,2.11
2022-12-25T01:39:27.995Z,2.11
2022-12-25T01:41:55.365Z,2.09
2022-12-25T01:44:37.099Z,2.10
2022-12-25T01:47:05.006Z,2.09
2022-12-25T01:49:34.639Z,2.08
2022-12-25T01:52:05.629Z,2.08
2022-12-25T01:54:41.048Z,2.14
2022-12-25T01:57:13.005Z,2.15
2022-12-25T01:59:39.834Z,2.16
2022-12-25T02:02:06.422Z,2.13
2022-12-25T02:04:40.341Z,2.05
2022-12-25T02:07:16.895Z,2.08
2022-12-25T02:09:44.411Z,2.06
2022-12-25T02:12:17.858Z,2.12
2022-12-25T02:14:44.975Z,2.12
2022-12-25T02:17:15.120Z,2.07
2022-12-25T02:20:01.878Z,2.10
2022-12-25T02:22:32.361Z,2.08
2022-12-25T02:25:08.835Z,2.01
2022-12-25T02:28:09.903Z,2.01
2022-12-25T02:30:43.193Z,1.99
2022-12-25T02:33:35.564Z,2.04
2022-12-25T02:36:08.669Z,2.00
2022-12-25T02:39:00.237Z,1.99
2022-12-25T02:41:29.634Z,1.95
2022-12-25T02:44:16.317Z,1.93
2022-12-25T02:47:02.406Z,1.94
2022-12-25T02:49:48.894Z,1.96
2022-12-25T02:52:37.993Z,1.98
2022-12-25T02:55:29.987Z,1.96
2022-12-25T02:58:18.869Z,1.94
2022-12-25T03:01:08.157Z,1.98
2022-12-25T03:03:58.227Z,1.95
2022-12-25T03:06:43.017Z,1.91
2022-12-25T03:09:38.359Z,2.01
2022-12-25T03:12:16.031Z,1.99
2022-12-25T03:15:01.202Z,1.97
2022-12-25T03:17:27.792Z,1.94
2022-12-25T03:20:12.922Z,1.95
2022-12-25T03:23:01.426Z,1.90
2022-12-25T03:25:47.337Z,1.90
2022-12-25T03:28:13.871Z,1.83
2022-12-25T03:30:58.976Z,1.86
2022-12-25T03:34:05.727Z,1.75
2022-12-25T03:37:29.325Z,1.81
2022-12-25T03:40:35.603Z,1.87
2022-12-25T03:43:31.075Z,1.78
2022-12-25T03:46:23.517Z,1.79
2022-12-25T03:49:15.180Z,1.75
2022-12-25T03:52:01.622Z,1.78
2022-12-25T03:54:49.713Z,1.74
2022-12-25T03:57:34.538Z,1.67
2022-12-25T04:00:19.461Z,1.66
2022-12-25T04:03:04.720Z,1.65
2022-12-25T04:05:50.046Z,1.64
2022-12-25T04:08:35.460Z,1.59
2022-12-25T04:11:20.220Z,1.61
2022-12-25T04:14:05.123Z,1.67
2022-12-25T04:16:50.093Z,1.67
2022-12-25T04:19:35.159Z,1.73
2022-12-25T04:22:20.464Z,1.64
2022-12-25T04:25:05.269Z,1.68
2022-12-25T04:27:50.704Z,1.71
2022-12-25T04:30:36.200Z,1.64
2022-12-25T04:33:21.099Z,1.66
2022-12-25T04:36:06.880Z,1.65
2022-12-25T04:38:33.469Z,1.62
2022-12-25T04:41:03.554Z,1.57
2022-12-25T04:43:30.191Z,1.62
2022-12-25T04:45:59.291Z,1.64
2022-12-25T04:48:27.249Z,1.59
2022-12-25T04:50:53.777Z,1.64
2022-12-25T04:53:20.357Z,1.66
2022-12-25T04:55:46.846Z,1.67
2022-12-25T04:58:13.376Z,1.58
2022-12-25T05:00:40.100Z,1.61
2022-12-25T05:03:06.716Z,1.65
2022-12-25T05:05:33.327Z,1.66
2022-12-25T05:07:59.846Z,1.63
2022-12-25T05:10:26.349Z,1.58
2022-12-25T05:12:52.878Z,1.61
2022-12-25T05:15:19.415Z,1.61
2022-12-25T05:17:45.954Z,1.63
2022-12-25T05:20:12.561Z,1.60
2022-12-25T05:22:39.101Z,1.65
2022-12-25T05:25:05.965Z,1.59
2022-12-25T05:27:32.479Z,1.59
2022-12-25T05:29:59.086Z,1.59
2022-12-25T05:32:25.578Z,1.60
2022-12-25T05:34:52.061Z,1.57
2022-12-25T05:37:18.603Z,1.59
2022-12-25T05:39:45.115Z,1.57
2022-12-25T05:42:11.628Z,1.53
2022-12-25T05:44:38.167Z,1.55
2022-12-25T05:47:04.751Z,1.52
2022-12-25T05:49:31.618Z,1.48
2022-12-25T05:51:58.343Z,1.49
2022-12-25T05:54:24.853Z,1.48
2022-12-25T05:56:51.424Z,1.46
2022-12-25T05:59:17.947Z,1.43
2022-12-25T06:01:44.489Z,1.44
2022-12-25T06:04:12.923Z,1.46
2022-12-25T06:06:40.083Z,1.44
2022-12-25T06:09:06.628Z,1.42
2022-12-25T06:11:33.147Z,1.39
2022-12-25T06:13:59.714Z,1.45
2022-12-25T06:16:26.319Z,1.49
2022-12-25T06:18:52.981Z,1.46
2022-12-25T06:21:19.633Z,1.47
2022-12-25T06:23:46.407Z,1.47
2022-12-25T06:26:16.515Z,1.39
2022-12-25T06:28:43.121Z,1.41
2022-12-25T06:31:15.286Z,1.38
2022-12-25T06:33:42.642Z,1.32
2022-12-25T06:36:14.001Z,1.38
2022-12-25T06:38:41.423Z,1.39
2022-12-25T06:41:14.997Z,1.38
2022-12-25T06:43:41.508Z,1.38
2022-12-25T06:46:10.977Z,1.37
2022-12-25T06:48:39.601Z,1.37
2022-12-25T06:51:07.210Z,1.28
2022-12-25T06:53:40.518Z,1.26
2022-12-25T06:56:15.686Z,1.30
2022-12-25T06:58:47.475Z,1.27
2022-12-25T07:01:50.839Z,1.26
2022-12-25T07:04:41.976Z,1.27
2022-12-25T07:07:09.866Z,1.25
2022-12-25T07:09:38.866Z,1.19
2022-12-25T07:12:08.313Z,1.17
2022-12-25T07:14:34.854Z,1.17
2022-12-25T07:17:01.459Z,1.19
2022-12-25T07:19:28.082Z,1.27
2022-12-25T07:21:54.684Z,1.18
2022-12-25T07:24:22.422Z,1.17
2022-12-25T07:26:50.743Z,1.16
2022-12-25T07:29:19.445Z,1.14
2022-12-25T07:31:46.600Z,1.21
2022-12-25T07:34:13.217Z,1.26
2022-12-25T07:36:39.752Z,1.23
2022-12-25T07:39:06.239Z,1.23
2022-12-25T07:41:32.767Z,1.22
2022-12-25T07:43:59.312Z,1.33
2022-12-25T07:46:26.780Z,1.31
2022-12-25T07:48:53.414Z,1.32
2022-12-25T07:51:20.063Z,1.30
2022-12-25T07:53:46.736Z,1.21
2022-12-25T07:56:19.957Z,1.32
2022-12-25T07:58:48.336Z,1.38
2022-12-25T08:01:19.469Z,1.39
2022-12-25T08:03:51.558Z,1.39
2022-12-25T08:06:19.038Z,1.40
2022-12-25T08:08:45.840Z,1.38
2022-12-25T08:11:12.669Z,1.41
2022-12-25T08:13:39.699Z,1.35
2022-12-25T08:16:08.785Z,1.30
2022-12-25T08:18:37.071Z,1.33
2022-12-25T08:21:13.066Z,1.34
2022-12-25T08:23:40.798Z,1.38
2022-12-25T08:26:09.191Z,1.36
2022-12-25T08:28:35.959Z,1.47
2022-12-25T08:31:24.695Z,1.55
2022-12-25T08:33:54.205Z,1.66
2022-12-25T08:36:21.593Z,1.69
2022-12-25T08:38:48.544Z,1.72
2022-12-25T08:41:16.276Z,1.69
2022-12-25T08:43:43.267Z,1.78
2022-12-25T08:46:10.315Z,1.95
2022-12-25T08:48:37.449Z,2.16
2022-12-25T08:51:05.144Z,2.28
2022-12-25T08:53:31.669Z,2.38
2022-12-25T08:56:04.477Z,2.37
2022-12-25T08:58:31.108Z,2.30
2022-12-25T09:00:57.769Z,2.21
2022-12-25T09:03:24.661Z,2.09
2022-12-25T09:05:52.468Z,2.08
2022-12-25T09:08:19.919Z,1.96
2022-12-25T09:10:46.465Z,1.88
2022-12-25T09:13:12.979Z,1.90
2022-12-25T09:15:40.652Z,1.96
2022-12-25T09:18:07.213Z,1.92
2022-12-25T09:20:33.707Z,1.93
2022-12-25T09:23:00.272Z,1.91
2022-12-25T09:25:26.791Z,1.95
2022-12-25T09:27:53.293Z,2.02
2022-12-25T09:30:19.861Z,2.11
2022-12-25T09:32:46.359Z,2.11
2022-12-25T09:35:13.952Z,2.04
2022-12-25T09:37:40.520Z,1.97
2022-12-25T09:40:08.009Z,1.95
2022-12-25T09:42:34.786Z,1.96
2022-12-25T09:45:05.949Z,1.98
2022-12-25T09:47:36.946Z,1.89
2022-12-25T09:50:18.855Z,1.97
2022-12-25T09:52:54.490Z,1.95
2022-12-25T09:55:24.312Z,1.90
2022-12-25T09:58:02.200Z,2.00
2022-12-25T10:00:35.993Z,1.95
2022-12-25T10:03:16.230Z,1.96
2022-12-25T10:06:10.615Z,1.96
2022-12-25T10:08:58.982Z,1.89
2022-12-25T10:11:58.942Z,1.92
2022-12-25T10:14:43.564Z,1.88
2022-12-25T10:17:31.950Z,1.87
2022-12-25T10:20:04.516Z,1.85
2022-12-25T10:22:40.687Z,1.80
2022-12-25T10:25:17.126Z,1.77
2022-12-25T10:27:43.835Z,1.73
2022-12-25T10:30:19.742Z,1.78
2022-12-25T10:32:47.134Z,1.74
2022-12-25T10:35:16.828Z,1.73
2022-12-25T10:37:46.275Z,1.82
2022-12-25T10:40:44.085Z,1.92
2022-12-25T10:43:46.339Z,1.99
2022-12-25T10:46:15.185Z,1.93
2022-12-25T10:48:50.009Z,1.91
2022-12-25T10:51:34.988Z,1.95
2022-12-25T10:54:35.712Z,1.91
2022-12-25T13:31:23.467Z,1.38
2022-12-25T13:34:52.955Z,1.40
2022-12-25T13:38:22.172Z,1.43
2022-12-25T13:41:15.521Z,1.51
2022-12-25T13:43:49.972Z,1.44
2022-12-25T13:46:29.326Z,1.52
2022-12-25T13:49:02.285Z,1.51
2022-12-25T13:51:37.743Z,1.48
2022-12-25T13:54:24.651Z,1.45
2022-12-25T13:57:00.441Z,1.41
2022-12-25T13:59:36.371Z,1.43
2022-12-25T14:02:22.364Z,1.45
2022-12-25T14:04:56.999Z,1.43
2022-12-25T14:07:34.712Z,1.41
2022-12-25T14:10:07.974Z,1.41
2022-12-25T14:12:43.679Z,1.45
2022-12-25T14:15:26.956Z,1.40
2022-12-25T14:17:59.375Z,1.43
2022-12-25T14:20:53.956Z,1.37
2022-12-25T14:23:30.402Z,1.36
2022-12-25T14:26:00.404Z,1.36
2022-12-25T14:28:33.233Z,1.37
2022-12-25T14:31:07.269Z,1.41
2022-12-25T14:33:39.728Z,1.43
2022-12-25T14:36:19.375Z,1.41
2022-12-25T14:39:06.222Z,1.37
2022-12-25T14:41:42.408Z,1.38
2022-12-25T14:44:36.413Z,1.32
2022-12-25T14:47:20.765Z,1.30
2022-12-25T14:49:54.937Z,1.34
2022-12-25T14:52:44.933Z,1.33
2022-12-25T14:55:29.814Z,1.30
2022-12-25T14:58:18.985Z,1.33
2022-12-25T15:01:08.929Z,1.38
2022-12-25T15:03:44.304Z,1.28
2022-12-25T15:06:32.653Z,1.31
2022-12-25T15:09:16.867Z,1.28
2022-12-25T15:11:56.895Z,1.28
2022-12-25T15:14:30.619Z,1.29
2022-12-25T15:17:09.685Z,1.32
2022-12-25T15:19:50.751Z,1.30
2022-12-25T15:22:26.255Z,1.35
2022-12-25T15:25:02.298Z,1.32
2022-12-25T15:27:41.308Z,1.27
2022-12-25T15:30:14.988Z,1.32
2022-12-25T15:32:47.249Z,1.26
2022-12-25T15:35:19.050Z,1.25
2022-12-25T15:37:58.813Z,1.31
2022-12-25T15:40:39.463Z,1.32
2022-12-25T15:43:39.587Z,1.31
2022-12-25T15:46:09.773Z,1.37
2022-12-25T15:48:44.797Z,1.37
2022-12-25T15:51:23.546Z,1.34
2022-12-25T15:54:01.190Z,1.37
2022-12-25T15:56:32.176Z,1.41
2022-12-25T15:59:07.660Z,1.37
2022-12-25T16:01:45.616Z,1.29
2022-12-25T16:04:24.625Z,1.33
2022-12-25T16:07:03.856Z,1.32
2022-12-25T16:09:36.201Z,1.30
2022-12-25T16:12:11.076Z,1.34
2022-12-25T16:14:51.845Z,1.24
2022-12-25T16:17:31.713Z,1.29
2022-12-25T16:20:07.908Z,1.27
2022-12-25T16:22:40.313Z,1.28
2022-12-25T16:25:33.793Z,1.24
2022-12-25T16:28:15.225Z,1.24
2022-12-25T16:30:53.647Z,1.20
2022-12-25T16:33:34.710Z,1.19
2022-12-25T16:36:08.824Z,1.26
2022-12-25T16:38:41.617Z,1.27
2022-12-25T16:41:56.226Z,1.26
2022-12-25T16:48:36.231Z,1.12
2022-12-25T16:51:49.149Z,1.17
2022-12-25T16:55:01.854Z,1.16
2022-12-25T17:01:44.899Z,1.16
2022-12-25T17:05:23.754Z,1.09
2022-12-25T17:11:38.811Z,1.11
2022-12-25T17:15:07.346Z,0.99
2022-12-25T17:18:39.016Z,1.04
2022-12-25T17:22:06.432Z,1.06
2022-12-25T17:25:21.225Z,1.01
2022-12-25T17:28:35.298Z,1.06
2022-12-25T17:31:49.828Z,1.06
2022-12-25T17:35:11.859Z,1.05
2022-12-25T17:38:20.496Z,1.09
2022-12-25T17:41:46.091Z,1.06
2022-12-25T17:45:03.237Z,1.06
2022-12-25T17:48:13.309Z,1.01
2022-12-25T17:51:22.135Z,0.95
2022-12-25T17:54:40.155Z,0.97
2022-12-25T17:57:53.811Z,0.92
2022-12-25T18:01:01.383Z,0.85
2022-12-25T18:07:41.795Z,0.81
2022-12-25T18:10:52.677Z,0.81
2022-12-25T18:13:52.774Z,0.82
2022-12-25T18:17:13.773Z,0.84
2022-12-25T18:20:39.329Z,0.81
2022-12-25T18:23:42.819Z,0.85
2022-12-25T18:26:26.659Z,0.86
2022-12-25T18:28:59.196Z,0.85
2022-12-25T18:31:34.678Z,0.88
2022-12-25T18:34:12.385Z,0.88
2022-12-25T18:36:51.232Z,0.89
2022-12-25T18:39:27.932Z,0.86
2022-12-25T18:42:25.260Z,0.85
2022-12-25T18:44:58.227Z,0.87
2022-12-25T18:48:15.667Z,0.86
2022-12-25T18:51:25.159Z,0.85
2022-12-25T18:54:30.894Z,0.81
2022-12-25T18:57:36.787Z,0.83
2022-12-25T19:04:08.835Z,0.78
2022-12-25T19:17:27.966Z,0.82
2022-12-25T19:20:34.159Z,0.78
2022-12-25T19:23:44.210Z,0.75
2022-12-25T19:26:47.038Z,0.69
2022-12-25T19:29:56.202Z,0.77
2022-12-25T19:33:17.552Z,0.76
2022-12-25T19:36:34.732Z,0.70
2022-12-25T19:40:22.674Z,0.65
2022-12-25T19:43:34.732Z,0.65
2022-12-25T19:47:09.469Z,0.66
2022-12-25T19:53:38.690Z,0.67
2022-12-25T19:56:50.897Z,0.63
2022-12-25T20:00:02.543Z,0.62
2022-12-25T20:03:08.536Z,0.65
2022-12-25T20:06:33.625Z,0.62
2022-12-25T20:09:41.833Z,0.56
2022-12-25T20:19:50.228Z,0.58
2022-12-25T20:22:57.789Z,0.59
2022-12-25T20:29:46.249Z,0.43
2022-12-25T20:32:52.329Z,0.46
2022-12-25T20:36:22.131Z,0.42
2022-12-25T20:39:25.502Z,0.44
2022-12-25T20:45:59.761Z,0.33
2022-12-25T20:49:18.004Z,0.43
2022-12-25T20:52:25.418Z,0.40
2022-12-25T20:55:35.727Z,0.37
2022-12-25T20:58:42.084Z,0.46
2022-12-25T21:05:13.822Z,0.44
2022-12-25T21:08:17.857Z,0.37
2022-12-25T21:21:53.753Z,0.42
2022-12-25T21:25:02.453Z,0.41
2022-12-25T21:41:54.012Z,0.40
2022-12-25T21:45:12.600Z,0.38
2022-12-25T22:02:07.947Z,-0.11
2022-12-25T22:05:14.530Z,-0.11
2022-12-25T22:08:32.677Z,-0.09
2022-12-25T22:11:46.752Z,-0.07
2022-12-25T22:14:57.471Z,0.00
2022-12-25T22:18:09.603Z,-0.02
2022-12-25T22:21:27.651Z,0.01
2022-12-25T22:24:38.528Z,-0.05
2022-12-25T22:31:39.362Z,0.01
2022-12-25T22:35:01.676Z,-0.03
2022-12-25T22:41:53.280Z,-0.01
2022-12-25T22:45:05.403Z,0.06
2022-12-25T22:48:24.182Z,-0.03
2022-12-25T22:51:45.717Z,-0.13
2022-12-25T22:54:46.052Z,-0.07
2022-12-25T22:58:00.700Z,-0.05
2022-12-25T23:08:09.921Z,-0.13
2022-12-25T23:11:18.543Z,-0.13
2022-12-25T23:14:19.114Z,-0.13
2022-12-25T23:17:27.734Z,-0.05
2022-12-25T23:20:39.479Z,-0.06
2022-12-25T23:24:07.838Z,-0.04
2022-12-25T23:27:11.815Z,-0.09
2022-12-25T23:30:24.469Z,-0.05
2022-12-25T23:33:36.120Z,-0.03
2022-12-25T23:36:44.118Z,-0.03
2022-12-25T23:43:11.500Z,-0.11
2022-12-25T23:46:19.995Z,-0.18
